Time;durP1;ratioP1;P1;durP2;ratioP2;P2;SDS_P1;SDS_P2;PMS_P1;PMS_P2;Temp;Humidity;BMP_temperature;BMP_pressure;BME280_temperature;BME280_humidity;BME280_pressure;Samples;Min_cycle;Max_cycle;Signal;HPM_P1;HPM_P2
2023/06/12 00:06:14;;;;;;;8.98;5.28;;;13.20;99.90;;;;;;5038663;28;20204;-90
2023/06/12 00:08:46;;;;;;;9.02;5.07;;;13.30;99.90;;;;;;5056085;28;20726;-90
2023/06/12 00:11:18;;;;;;;7.45;4.82;;;13.40;99.90;;;;;;5056241;28;20200;-89
2023/06/12 00:13:52;;;;;;;7.15;4.97;;;13.30;99.90;;;;;;5061175;28;20746;-89
2023/06/12 00:16:24;;;;;;;9.75;5.30;;;13.40;99.90;;;;;;5061036;28;20287;-89
2023/06/12 00:19:03;;;;;;;6.78;4.72;;;13.40;99.90;;;;;;5076243;28;20204;-90
2023/06/12 00:21:36;;;;;;;6.10;4.40;;;13.50;99.90;;;;;;5085869;28;20208;-89
2023/06/12 00:24:10;;;;;;;7.40;4.90;;;13.70;99.90;;;;;;5079591;28;20199;-91
2023/06/12 00:26:41;;;;;;;8.10;4.70;;;13.80;99.90;;;;;;5075181;28;20245;-91
2023/06/12 00:29:14;;;;;;;8.02;4.65;;;13.80;99.90;;;;;;5075216;28;20206;-91
2023/06/12 00:31:46;;;;;;;7.93;5.10;;;13.80;99.90;;;;;;5074982;28;20196;-90
2023/06/12 00:34:20;;;;;;;9.10;4.63;;;13.90;99.90;;;;;;5074987;28;20314;-92
2023/06/12 00:36:52;;;;;;;8.52;5.13;;;14.00;99.90;;;;;;5073887;28;20206;-91
2023/06/12 00:39:23;;;;;;;7.28;5.15;;;14.10;99.90;;;;;;5073986;28;20200;-91
2023/06/12 00:41:55;;;;;;;7.43;5.30;;;14.20;99.90;;;;;;5075151;28;20196;-92
2023/06/12 00:44:26;;;;;;;9.95;5.55;;;14.30;99.90;;;;;;5074644;28;20204;-92
2023/06/12 00:46:58;;;;;;;8.10;5.30;;;14.30;99.90;;;;;;5074348;28;20204;-91
2023/06/12 00:49:32;;;;;;;8.85;5.38;;;14.40;99.90;;;;;;5074232;28;20199;-91
2023/06/12 00:52:08;;;;;;;9.02;5.47;;;14.40;99.90;;;;;;5074263;28;20227;-91
2023/06/12 00:54:40;;;;;;;8.45;5.13;;;14.50;99.90;;;;;;5074492;28;20204;-91
2023/06/12 00:57:13;;;;;;;9.27;5.10;;;14.60;99.90;;;;;;5074173;28;20199;-92
2023/06/12 00:59:44;;;;;;;8.05;5.13;;;14.70;99.90;;;;;;5073831;28;20608;-91
2023/06/12 01:02:15;;;;;;;7.25;5.30;;;14.80;99.90;;;;;;5073814;28;20203;-90
2023/06/12 01:04:49;;;;;;;7.85;4.93;;;14.90;99.90;;;;;;5074995;28;20743;-91
2023/06/12 01:07:31;;;;;;;9.40;5.30;;;15.00;99.90;;;;;;5074131;28;20204;-90
2023/06/12 01:10:12;;;;;;;8.60;4.82;;;15.20;99.90;;;;;;5074014;28;20329;-91
2023/06/12 01:12:46;;;;;;;9.25;4.82;;;15.30;99.90;;;;;;5073370;28;20699;-90
2023/06/12 01:15:18;;;;;;;9.93;5.80;;;15.30;99.90;;;;;;5073867;28;20234;-91
2023/06/12 01:17:50;;;;;;;9.73;5.65;;;15.40;99.90;;;;;;5074085;28;20196;-91
2023/06/12 01:20:26;;;;;;;9.02;5.20;;;15.40;99.90;;;;;;5073693;28;20204;-91
2023/06/12 01:23:03;;;;;;;12.20;5.20;;;15.50;99.90;;;;;;5073190;28;20195;-91
2023/06/12 01:26:21;;;;;;;10.60;5.45;;;15.60;99.90;;;;;;5073693;28;20196;-91
2023/06/12 01:29:26;;;;;;;7.35;4.32;;;15.70;99.90;;;;;;5073319;28;20663;-91
2023/06/12 01:32:11;;;;;;;6.78;4.68;;;15.80;99.90;;;;;;5072916;28;20256;-92
2023/06/12 01:34:56;;;;;;;7.90;5.55;;;15.90;99.90;;;;;;5072803;28;20239;-92
2023/06/12 01:37:32;;;;;;;7.75;4.57;;;16.10;99.90;;;;;;5073143;28;20667;-91
2023/06/12 01:40:10;;;;;;;7.45;5.10;;;16.30;99.90;;;;;;5073104;28;20233;-91
2023/06/12 01:42:42;;;;;;;8.02;4.70;;;16.30;99.90;;;;;;5074877;28;20666;-89
2023/06/12 01:45:14;;;;;;;7.18;4.70;;;16.30;99.90;;;;;;5077482;28;20212;-90
2023/06/12 01:47:49;;;;;;;7.35;5.03;;;16.50;99.90;;;;;;5073731;28;20238;-90
2023/06/12 01:50:20;;;;;;;6.72;4.90;;;16.40;99.90;;;;;;5073709;28;20206;-90
2023/06/12 01:52:53;;;;;;;7.03;5.30;;;16.50;99.90;;;;;;5072883;28;20227;-91
2023/06/12 01:55:25;;;;;;;6.97;4.82;;;16.60;99.90;;;;;;5073462;28;20283;-91
2023/06/12 01:57:57;;;;;;;9.32;5.20;;;16.60;99.90;;;;;;5072972;28;20202;-91
2023/06/12 02:00:30;;;;;;;6.38;4.55;;;16.70;99.90;;;;;;5073038;28;20679;-90
2023/06/12 02:03:05;;;;;;;6.85;5.13;;;16.80;99.90;;;;;;5071148;28;20210;-91
2023/06/12 02:05:37;;;;;;;8.35;4.88;;;16.80;99.90;;;;;;5072563;28;20202;-91
2023/06/12 02:08:09;;;;;;;7.57;4.85;;;16.90;99.90;;;;;;5071250;28;20216;-90
2023/06/12 02:10:40;;;;;;;7.18;4.70;;;16.90;99.90;;;;;;5072831;28;20203;-91
2023/06/12 02:13:11;;;;;;;8.70;4.75;;;16.90;99.90;;;;;;5072747;28;20208;-91
2023/06/12 02:15:43;;;;;;;6.88;5.10;;;16.90;99.90;;;;;;5072475;28;20196;-90
2023/06/12 02:18:20;;;;;;;7.22;5.03;;;17.00;99.90;;;;;;5074222;28;20593;-90
2023/06/12 02:20:51;;;;;;;7.93;4.82;;;17.00;99.90;;;;;;5073721;28;20252;-90
2023/06/12 02:23:24;;;;;;;6.70;4.32;;;17.00;99.90;;;;;;5073014;28;20227;-90
2023/06/12 02:25:56;;;;;;;5.63;5.05;;;17.00;99.90;;;;;;5072338;28;20230;-90
2023/06/12 02:28:27;;;;;;;8.15;4.60;;;17.10;99.90;;;;;;5072078;28;20204;-91
2023/06/12 02:31:00;;;;;;;6.40;4.32;;;17.10;99.90;;;;;;5061698;28;20644;-90
2023/06/12 02:33:37;;;;;;;7.55;4.40;;;17.20;99.90;;;;;;5052779;28;20236;-90
2023/06/12 02:36:09;;;;;;;6.28;4.30;;;17.20;99.90;;;;;;5051928;28;20280;-90
2023/06/12 02:38:40;;;;;;;7.25;3.90;;;17.30;99.90;;;;;;5072021;28;20196;-90
2023/06/12 02:41:15;;;;;;;8.82;4.43;;;17.30;99.90;;;;;;5071977;28;20195;-91
2023/06/12 02:43:47;;;;;;;7.80;4.30;;;17.40;99.90;;;;;;5071960;28;20580;-90
2023/06/12 02:46:18;;;;;;;8.18;5.22;;;17.40;99.90;;;;;;5071982;28;20218;-90
2023/06/12 02:48:54;;;;;;;6.80;4.60;;;17.50;99.90;;;;;;5071939;28;20196;-89
2023/06/12 02:51:26;;;;;;;7.38;4.70;;;17.70;99.90;;;;;;5071682;28;20195;-89
2023/06/12 02:53:58;;;;;;;7.50;4.70;;;17.80;99.90;;;;;;5071932;28;20722;-90
2023/06/12 02:56:30;;;;;;;8.23;4.97;;;18.00;99.90;;;;;;5073088;28;20654;-91
2023/06/12 02:59:03;;;;;;;9.00;5.85;;;18.10;99.90;;;;;;5072264;28;20660;-90
2023/06/12 03:01:35;;;;;;;7.78;4.97;;;18.30;99.90;;;;;;5070784;28;20253;-90
2023/06/12 03:04:11;;;;;;;5.97;4.20;;;18.30;99.90;;;;;;5071593;28;20204;-91
2023/06/12 03:06:43;;;;;;;8.98;4.28;;;18.50;99.90;;;;;;5071642;28;20196;-90
2023/06/12 03:09:15;;;;;;;7.22;3.58;;;18.60;99.90;;;;;;5071660;28;20235;-90
2023/06/12 03:11:47;;;;;;;8.05;3.67;;;18.70;99.90;;;;;;5071299;28;20196;-89
2023/06/12 03:14:21;;;;;;;7.05;3.50;;;18.80;99.90;;;;;;5073980;28;20258;-90
2023/06/12 03:16:54;;;;;;;6.40;3.67;;;18.90;99.90;;;;;;5073130;28;20207;-90
2023/06/12 03:19:28;;;;;;;5.32;3.42;;;19.00;99.90;;;;;;5072656;28;20281;-90
2023/06/12 03:22:00;;;;;;;5.78;3.10;;;18.90;99.90;;;;;;5074662;28;20200;-90
2023/06/12 03:24:31;;;;;;;4.18;3.13;;;19.00;99.90;;;;;;5072552;28;20200;-89
2023/06/12 03:27:02;;;;;;;4.85;3.03;;;19.00;99.90;;;;;;5075605;28;20199;-90
2023/06/12 03:29:33;;;;;;;7.22;3.47;;;19.10;99.90;;;;;;5074884;28;20196;-90
2023/06/12 03:32:04;;;;;;;7.30;3.80;;;19.20;99.90;;;;;;5075242;28;20208;-89
2023/06/12 03:34:42;;;;;;;6.15;3.05;;;19.30;99.90;;;;;;5073987;28;20300;-89
2023/06/12 03:37:13;;;;;;;6.10;2.80;;;19.30;99.90;;;;;;5075147;28;20283;-90
2023/06/12 03:39:45;;;;;;;4.22;2.63;;;19.30;99.90;;;;;;5075082;28;20545;-91
2023/06/12 03:42:17;;;;;;;5.13;2.83;;;19.30;99.90;;;;;;5075314;28;20210;-90
2023/06/12 03:44:52;;;;;;;6.07;2.90;;;19.40;99.90;;;;;;5075901;28;20204;-90
2023/06/12 03:47:25;;;;;;;6.63;2.80;;;19.40;99.90;;;;;;5074953;28;20203;-90
2023/06/12 03:50:00;;;;;;;7.70;2.63;;;19.40;99.90;;;;;;5075723;28;20196;-90
2023/06/12 03:52:37;;;;;;;5.65;2.45;;;19.40;99.90;;;;;;5076247;28;20196;-90
2023/06/12 03:55:10;;;;;;;4.72;1.90;;;19.50;99.90;;;;;;5074027;28;20315;-89
2023/06/12 03:57:43;;;;;;;2.55;1.83;;;19.50;99.90;;;;;;5073999;28;20196;-88
2023/06/12 04:00:16;;;;;;;2.85;2.00;;;19.60;99.90;;;;;;5079445;28;20238;-88
2023/06/12 04:02:48;;;;;;;6.10;1.92;;;19.60;99.90;;;;;;5074052;28;20206;-90
2023/06/12 04:05:22;;;;;;;4.72;2.00;;;19.60;99.90;;;;;;5073281;28;20687;-90
2023/06/12 04:07:55;;;;;;;4.55;2.28;;;19.60;99.90;;;;;;5073893;28;20196;-90
2023/06/12 04:10:26;;;;;;;4.50;2.08;;;19.60;99.90;;;;;;5073787;28;20647;-90
2023/06/12 04:13:00;;;;;;;3.65;2.28;;;19.60;99.90;;;;;;5075517;28;20196;-90
2023/06/12 04:15:32;;;;;;;4.55;2.15;;;19.60;99.90;;;;;;5076085;28;20203;-90
2023/06/12 04:18:04;;;;;;;5.18;2.63;;;19.60;99.90;;;;;;5077542;28;20235;-90
2023/06/12 04:20:38;;;;;;;4.72;2.50;;;19.60;99.90;;;;;;5075875;28;20254;-90
2023/06/12 04:23:11;;;;;;;4.20;2.10;;;19.50;99.90;;;;;;5076874;28;20202;-90
2023/06/12 04:25:45;;;;;;;4.10;1.67;;;19.50;99.90;;;;;;5062431;28;20179;-90
2023/06/12 04:28:16;;;;;;;6.15;2.20;;;19.50;99.90;;;;;;5076158;28;20208;-90
2023/06/12 04:30:49;;;;;;;2.70;1.35;;;19.50;99.90;;;;;;5075992;28;20195;-90
2023/06/12 04:33:20;;;;;;;3.22;1.50;;;19.50;99.90;;;;;;5075574;28;20240;-89
2023/06/12 04:35:56;;;;;;;4.88;1.77;;;19.60;99.90;;;;;;5075832;28;20278;-89
2023/06/12 04:38:27;;;;;;;1.95;1.65;;;19.50;99.90;;;;;;5075604;28;20222;-90
2023/06/12 04:40:58;;;;;;;3.70;1.70;;;19.60;99.90;;;;;;5076753;28;20261;-90
2023/06/12 04:43:31;;;;;;;4.78;1.83;;;19.50;99.90;;;;;;5076278;28;20184;-91
2023/06/12 04:46:02;;;;;;;3.67;1.65;;;19.60;99.90;;;;;;5076901;28;20203;-90
2023/06/12 04:48:36;;;;;;;3.72;1.60;;;19.60;99.90;;;;;;5076288;28;20279;-89
2023/06/12 04:51:10;;;;;;;6.82;1.80;;;19.60;99.90;;;;;;5077606;28;20204;-90
2023/06/12 04:53:43;;;;;;;2.55;1.40;;;19.60;99.90;;;;;;5075180;28;20235;-90
2023/06/12 04:56:20;;;;;;;2.28;1.45;;;19.50;99.90;;;;;;5075104;28;20293;-89
2023/06/12 04:58:53;;;;;;;2.88;1.40;;;19.40;99.90;;;;;;5078408;28;20199;-88
2023/06/12 05:01:24;;;;;;;3.10;1.50;;;19.40;99.90;;;;;;5084106;28;20188;-88
2023/06/12 05:03:57;;;;;;;2.75;1.42;;;19.50;99.90;;;;;;5082558;28;20210;-89
2023/06/12 05:06:32;;;;;;;2.80;1.73;;;19.50;99.90;;;;;;5077927;28;20253;-89
2023/06/12 05:09:07;;;;;;;4.68;1.70;;;19.40;99.90;;;;;;5074096;28;20287;-90
2023/06/12 05:11:39;;;;;;;3.70;1.45;;;19.40;99.90;;;;;;5072349;28;20246;-90
2023/06/12 05:14:11;;;;;;;2.95;1.67;;;19.40;99.90;;;;;;5074079;28;20246;-90
2023/06/12 05:16:46;;;;;;;3.50;2.10;;;19.30;99.90;;;;;;5074002;28;20248;-89
2023/06/12 05:19:19;;;;;;;10.23;8.25;;;19.20;99.90;;;;;;5073520;28;20204;-89
2023/06/12 05:21:55;;;;;;;4.78;3.10;;;19.20;99.90;;;;;;5073340;28;20231;-89
2023/06/12 05:24:26;;;;;;;4.70;2.17;;;19.10;99.90;;;;;;5075507;28;20196;-89
2023/06/12 05:26:59;;;;;;;3.13;1.70;;;19.10;99.90;;;;;;5073339;28;20257;-89
2023/06/12 05:29:31;;;;;;;4.05;1.77;;;19.10;99.90;;;;;;5073945;28;20216;-89
2023/06/12 05:32:03;;;;;;;4.97;1.90;;;19.10;99.90;;;;;;5073555;28;20881;-89
2023/06/12 05:34:34;;;;;;;4.57;2.30;;;19.10;99.90;;;;;;5053834;28;20272;-89
2023/06/12 05:37:09;;;;;;;5.43;2.70;;;19.10;99.90;;;;;;5053391;28;20255;-89
2023/06/12 05:39:40;;;;;;;2.97;1.40;;;19.10;99.90;;;;;;5052252;28;20245;-89
2023/06/12 05:42:12;;;;;;;3.17;1.63;;;19.00;99.90;;;;;;5053156;28;20203;-89
2023/06/12 05:44:46;;;;;;;2.63;1.63;;;19.00;99.90;;;;;;5065257;28;20204;-89
2023/06/12 05:47:18;;;;;;;5.88;4.78;;;19.10;99.90;;;;;;5074231;28;20214;-91
2023/06/12 05:49:50;;;;;;;5.32;3.60;;;19.10;99.90;;;;;;5073185;28;20204;-90
2023/06/12 05:52:26;;;;;;;5.80;4.60;;;19.20;99.90;;;;;;5075401;28;20199;-90
2023/06/12 05:54:57;;;;;;;11.02;8.63;;;19.20;99.90;;;;;;5076841;28;20245;-90
2023/06/12 05:57:29;;;;;;;6.10;4.50;;;19.20;99.90;;;;;;5075593;28;20272;-89
2023/06/12 06:00:02;;;;;;;1.65;1.48;;;19.20;99.90;;;;;;5072691;28;20206;-90
2023/06/12 06:02:33;;;;;;;2.92;1.58;;;19.20;99.90;;;;;;5075492;28;20219;-89
2023/06/12 06:05:04;;;;;;;26.65;18.60;;;19.20;99.90;;;;;;5073306;28;20698;-89
2023/06/12 06:07:38;;;;;;;8.05;6.15;;;19.10;99.90;;;;;;5072911;28;20202;-90
2023/06/12 06:10:10;;;;;;;6.50;5.05;;;19.10;99.90;;;;;;5075564;28;20231;-90
2023/06/12 06:12:44;;;;;;;3.92;2.60;;;19.10;99.90;;;;;;5057785;28;20200;-90
2023/06/12 06:15:17;;;;;;;4.45;2.50;;;19.10;99.90;;;;;;5057824;28;20224;-90
2023/06/12 06:17:48;;;;;;;2.33;1.50;;;19.10;99.90;;;;;;5059309;28;20196;-89
2023/06/12 06:20:20;;;;;;;2.30;1.30;;;19.00;99.90;;;;;;5074008;28;20287;-89
2023/06/12 06:22:56;;;;;;;1.48;1.10;;;19.00;99.90;;;;;;5076062;28;20196;-89
2023/06/12 06:25:29;;;;;;;2.67;1.45;;;18.90;99.90;;;;;;5076213;28;20255;-90
2023/06/12 06:28:00;;;;;;;1.40;1.05;;;18.80;99.90;;;;;;5073711;28;20192;-90
2023/06/12 06:30:31;;;;;;;1.38;1.05;;;18.80;99.90;;;;;;5073993;28;20195;-90
2023/06/12 06:33:02;;;;;;;1.55;1.10;;;18.70;99.90;;;;;;5076753;28;20196;-89
2023/06/12 06:35:35;;;;;;;1.50;1.35;;;18.70;99.90;;;;;;5080842;28;20222;-89
2023/06/12 06:38:10;;;;;;;1.77;1.55;;;18.60;99.90;;;;;;5075578;28;20244;-90
2023/06/12 06:40:41;;;;;;;3.28;1.90;;;18.60;99.90;;;;;;5074834;28;20230;-89
2023/06/12 06:43:13;;;;;;;4.32;2.30;;;18.50;99.90;;;;;;5075702;28;20313;-90
2023/06/12 06:45:46;;;;;;;1.80;1.30;;;18.50;99.90;;;;;;5074558;28;20301;-90
2023/06/12 06:48:19;;;;;;;2.75;1.50;;;18.50;99.90;;;;;;5075024;28;20214;-89
2023/06/12 06:50:51;;;;;;;3.38;2.38;;;18.40;99.90;;;;;;5076242;28;20218;-90
2023/06/12 06:53:26;;;;;;;7.35;4.60;;;18.30;99.90;;;;;;5076532;28;20208;-90
2023/06/12 06:56:00;;;;;;;9.02;5.88;;;18.30;99.90;;;;;;5075525;28;20231;-90
2023/06/12 06:58:31;;;;;;;8.75;6.18;;;18.30;99.90;;;;;;5074894;28;20268;-88
2023/06/12 07:01:04;;;;;;;8.95;5.90;;;18.20;99.90;;;;;;5075657;28;20199;-89
2023/06/12 07:03:35;;;;;;;7.85;4.53;;;18.20;99.90;;;;;;5074362;28;20199;-90
2023/06/12 07:06:07;;;;;;;5.28;2.90;;;18.20;99.90;;;;;;5075758;28;20207;-90
2023/06/12 07:08:43;;;;;;;4.22;3.17;;;18.10;99.90;;;;;;5075931;28;20264;-90
2023/06/12 07:11:15;;;;;;;5.47;3.00;;;18.10;99.90;;;;;;5075245;28;20259;-90
2023/06/12 07:13:48;;;;;;;9.05;3.60;;;18.10;99.90;;;;;;5075127;28;20218;-90
2023/06/12 07:16:23;;;;;;;6.55;3.30;;;18.00;99.90;;;;;;5075624;28;20243;-88
2023/06/12 07:18:56;;;;;;;5.95;2.88;;;18.00;99.90;;;;;;5076875;28;20603;-90
2023/06/12 07:21:27;;;;;;;7.22;2.85;;;18.00;99.90;;;;;;5077524;28;20203;-89
2023/06/12 07:24:05;;;;;;;5.30;2.90;;;17.90;99.90;;;;;;5075086;28;20195;-90
2023/06/12 07:26:37;;;;;;;6.60;3.30;;;18.00;99.90;;;;;;5076436;28;20200;-89
2023/06/12 07:29:09;;;;;;;6.15;3.28;;;17.90;99.90;;;;;;5076583;28;20196;-89
2023/06/12 07:31:41;;;;;;;5.97;3.17;;;17.90;99.90;;;;;;5073327;28;20374;-89
2023/06/12 07:34:14;;;;;;;6.18;3.45;;;17.90;99.90;;;;;;5072427;28;20239;-89
2023/06/12 07:36:47;;;;;;;8.15;3.40;;;17.80;99.90;;;;;;5071780;28;20202;-90
2023/06/12 07:39:20;;;;;;;5.70;3.45;;;17.80;99.90;;;;;;5071743;28;20670;-90
2023/06/12 07:41:52;;;;;;;5.00;3.00;;;17.80;99.90;;;;;;5072019;28;20206;-89
2023/06/12 07:44:24;;;;;;;5.47;2.80;;;17.80;99.90;;;;;;5071550;28;20230;-90
2023/06/12 07:46:57;;;;;;;5.97;3.10;;;17.80;99.90;;;;;;5076601;28;20647;-88
2023/06/12 07:49:37;;;;;;;4.72;3.10;;;17.70;99.90;;;;;;5077537;28;20200;-90
2023/06/12 07:52:09;;;;;;;6.30;3.80;;;17.70;99.90;;;;;;5077376;28;20200;-90
2023/06/12 07:54:45;;;;;;;7.78;3.95;;;17.70;99.90;;;;;;5075161;28;20226;-90
2023/06/12 07:57:16;;;;;;;8.48;3.60;;;17.60;99.90;;;;;;5076230;28;20200;-90
2023/06/12 07:59:48;;;;;;;5.57;3.30;;;17.60;99.90;;;;;;5074995;28;20218;-90
2023/06/12 08:02:19;;;;;;;8.30;3.20;;;17.60;99.90;;;;;;5075226;28;20204;-90
2023/06/12 08:04:50;;;;;;;6.53;3.30;;;17.60;99.90;;;;;;5075074;28;20199;-89
2023/06/12 08:07:22;;;;;;;7.32;3.50;;;17.60;99.90;;;;;;5075186;28;20635;-89
2023/06/12 08:09:56;;;;;;;5.25;4.05;;;17.60;99.90;;;;;;5075277;28;20210;-89
2023/06/12 08:12:27;;;;;;;6.15;3.60;;;17.60;99.90;;;;;;5075365;28;20202;-89
2023/06/12 08:14:59;;;;;;;3.50;3.00;;;17.50;99.90;;;;;;5075088;28;20223;-89
2023/06/12 08:17:30;;;;;;;6.03;3.10;;;17.50;99.90;;;;;;5074634;28;20288;-90
2023/06/12 08:20:05;;;;;;;5.05;3.22;;;17.50;99.90;;;;;;5075082;28;20212;-90
2023/06/12 08:22:37;;;;;;;5.25;2.95;;;17.50;99.90;;;;;;5074964;28;20202;-90
2023/06/12 08:25:11;;;;;;;5.57;3.03;;;17.50;99.90;;;;;;5075038;28;20210;-90
2023/06/12 08:27:43;;;;;;;6.97;2.90;;;17.50;99.90;;;;;;5074573;28;20681;-90
2023/06/12 08:30:14;;;;;;;5.03;3.10;;;17.50;99.90;;;;;;5081269;28;20234;-90
2023/06/12 08:32:45;;;;;;;5.78;2.90;;;17.50;99.90;;;;;;5076347;28;20227;-90
2023/06/12 08:35:18;;;;;;;6.13;3.35;;;17.50;99.90;;;;;;5073013;28;20331;-90
2023/06/12 08:37:49;;;;;;;5.35;3.22;;;17.40;99.90;;;;;;5075129;28;20693;-88
2023/06/12 08:40:24;;;;;;;6.45;3.30;;;17.40;99.90;;;;;;5074808;28;20196;-89
2023/06/12 08:42:56;;;;;;;6.28;3.58;;;17.40;99.90;;;;;;5075613;28;20260;-88
2023/06/12 08:45:28;;;;;;;5.28;3.17;;;17.40;99.90;;;;;;5076646;28;20214;-89
2023/06/12 08:48:00;;;;;;;6.82;3.30;;;17.40;99.90;;;;;;5076625;28;20185;-89
2023/06/12 08:50:32;;;;;;;6.68;3.47;;;17.40;99.90;;;;;;5076498;28;20199;-90
2023/06/12 08:53:05;;;;;;;6.15;3.30;;;17.40;99.90;;;;;;5075945;28;20291;-90
2023/06/12 08:55:42;;;;;;;6.28;3.70;;;17.40;99.90;;;;;;5076745;28;20279;-89
2023/06/12 08:58:15;;;;;;;6.18;3.45;;;17.40;99.90;;;;;;5077501;28;20199;-89
2023/06/12 09:00:49;;;;;;;7.20;4.20;;;17.40;99.90;;;;;;5078112;28;20196;-90
2023/06/12 09:03:23;;;;;;;8.02;4.20;;;17.40;99.90;;;;;;5079069;28;20208;-90
2023/06/12 09:05:57;;;;;;;5.78;3.78;;;17.40;99.90;;;;;;5078813;28;20196;-89
2023/06/12 09:08:31;;;;;;;5.78;3.92;;;17.30;99.90;;;;;;5079458;28;20670;-90
2023/06/12 09:11:08;;;;;;;5.97;4.65;;;17.30;99.90;;;;;;5079956;28;20199;-90
2023/06/12 09:13:48;;;;;;;5.90;4.07;;;17.30;99.90;;;;;;5078343;28;20259;-91
2023/06/12 09:16:21;;;;;;;6.70;3.78;;;17.30;99.90;;;;;;5075060;28;20594;-90
2023/06/12 09:18:56;;;;;;;6.70;3.83;;;17.20;99.90;;;;;;5074976;28;20195;-89
2023/06/12 09:21:27;;;;;;;4.40;3.38;;;17.30;99.90;;;;;;5076067;28;20205;-88
2023/06/12 09:24:00;;;;;;;6.88;3.90;;;17.30;99.90;;;;;;5077070;28;20666;-89
2023/06/12 09:26:34;;;;;;;5.82;3.42;;;17.20;99.90;;;;;;5076014;28;20206;-90
2023/06/12 09:29:07;;;;;;;5.40;3.22;;;17.30;99.90;;;;;;5078284;28;20192;-91
2023/06/12 09:31:38;;;;;;;5.22;3.20;;;17.20;99.90;;;;;;5077432;28;20200;-90
2023/06/12 09:34:09;;;;;;;5.57;3.72;;;17.20;99.90;;;;;;5075739;28;20231;-90
2023/06/12 09:36:46;;;;;;;6.55;3.85;;;17.20;99.90;;;;;;5074650;28;20224;-91
2023/06/12 09:39:26;;;;;;;6.80;4.05;;;17.20;99.90;;;;;;5075465;28;20191;-90
2023/06/12 09:42:05;;;;;;;6.07;3.75;;;17.20;99.90;;;;;;5075384;28;20204;-89
2023/06/12 09:44:36;;;;;;;5.38;3.28;;;17.20;99.90;;;;;;5077144;28;20196;-90
2023/06/12 09:47:09;;;;;;;8.43;4.18;;;17.20;99.90;;;;;;5091447;28;20223;-89
2023/06/12 09:49:42;;;;;;;6.40;4.30;;;17.20;99.90;;;;;;5089801;28;20199;-88
2023/06/12 09:52:14;;;;;;;6.75;4.60;;;17.10;99.90;;;;;;5077723;28;20291;-87
2023/06/12 09:54:50;;;;;;;6.57;4.40;;;17.20;99.90;;;;;;5081791;28;20197;-88
2023/06/12 09:57:26;;;;;;;8.65;5.43;;;17.20;99.90;;;;;;5080295;28;20229;-88
2023/06/12 10:00:05;;;;;;;6.40;4.25;;;17.20;99.90;;;;;;5078763;28;20212;-90
2023/06/12 10:02:38;;;;;;;6.53;4.35;;;17.20;99.90;;;;;;5075784;28;20671;-90
2023/06/12 10:05:16;;;;;;;5.75;3.47;;;17.20;99.90;;;;;;5090162;28;20252;-90
2023/06/12 10:07:52;;;;;;;5.22;3.42;;;17.20;99.90;;;;;;5084049;28;20539;-89
2023/06/12 10:10:24;;;;;;;5.60;3.28;;;17.20;99.90;;;;;;5079834;28;20200;-89
2023/06/12 10:13:02;;;;;;;5.32;3.40;;;17.10;99.90;;;;;;5084383;28;20196;-89
2023/06/12 10:15:34;;;;;;;6.68;3.20;;;17.10;99.90;;;;;;5077704;28;20302;-90
2023/06/12 10:18:08;;;;;;;5.47;3.50;;;17.10;99.90;;;;;;5078641;28;20206;-91
2023/06/12 10:20:44;;;;;;;4.55;3.17;;;17.20;99.90;;;;;;5080686;28;20195;-90
2023/06/12 10:23:16;;;;;;;4.75;3.20;;;17.10;99.90;;;;;;5081755;28;20272;-89
2023/06/12 10:25:50;;;;;;;5.85;3.03;;;17.10;99.90;;;;;;5097581;28;20214;-89
2023/06/12 10:28:25;;;;;;;4.65;3.17;;;17.10;99.90;;;;;;5080870;28;20211;-89
2023/06/12 10:31:24;;;;;;;4.60;2.90;;;17.10;99.90;;;;;;5083554;28;20243;-89
2023/06/12 10:34:15;;;;;;;5.38;3.50;;;17.10;99.90;;;;;;5078728;28;20718;-89
2023/06/12 10:36:49;;;;;;;5.72;3.38;;;17.10;99.90;;;;;;5080176;28;20246;-90
2023/06/12 10:39:27;;;;;;;4.85;2.90;;;17.10;99.90;;;;;;5080959;28;20294;-90
2023/06/12 10:42:03;;;;;;;3.97;3.15;;;17.10;99.90;;;;;;5080628;28;20769;-89
2023/06/12 10:44:49;;;;;;;5.13;2.95;;;17.00;99.90;;;;;;5080660;28;20201;-89
2023/06/12 10:47:24;;;;;;;4.75;2.83;;;17.00;99.90;;;;;;5080763;28;20208;-89
2023/06/12 10:50:05;;;;;;;3.83;2.80;;;17.00;99.90;;;;;;5080298;28;20200;-89
2023/06/12 10:52:37;;;;;;;4.78;2.92;;;17.00;99.90;;;;;;5078303;28;20199;-90
2023/06/12 10:55:33;;;;;;;4.93;3.00;;;17.00;99.90;;;;;;5081467;28;20297;-90
2023/06/12 10:58:07;;;;;;;6.78;2.78;;;17.00;99.90;;;;;;5077848;28;20195;-90
2023/06/12 11:00:45;;;;;;;3.78;2.42;;;16.90;99.90;;;;;;5076303;28;20262;-90
2023/06/12 11:03:18;;;;;;;5.15;2.90;;;16.90;99.90;;;;;;5074383;28;20199;-90
2023/06/12 11:05:58;;;;;;;4.90;3.03;;;17.00;99.90;;;;;;5074005;28;20581;-89
2023/06/12 11:08:34;;;;;;;5.85;2.72;;;16.90;99.90;;;;;;5089597;28;20184;-90
2023/06/12 11:11:14;;;;;;;4.32;3.17;;;16.90;99.90;;;;;;5080150;28;20210;-90
2023/06/12 11:13:48;;;;;;;5.22;3.50;;;16.90;99.90;;;;;;5078375;28;20184;-90
2023/06/12 11:16:26;;;;;;;5.35;3.33;;;16.90;99.90;;;;;;5080522;28;20211;-89
2023/06/12 11:19:16;;;;;;;5.80;3.10;;;16.90;99.90;;;;;;5077239;28;20227;-90
2023/06/12 11:21:56;;;;;;;3.42;2.78;;;16.90;99.90;;;;;;5084791;28;20191;-89
2023/06/12 11:24:30;;;;;;;2.50;2.30;;;16.90;99.90;;;;;;5085246;28;20206;-89
2023/06/12 11:27:03;;;;;;;3.08;2.45;;;16.90;99.90;;;;;;5072832;28;20573;-89
2023/06/12 11:29:39;;;;;;;5.47;2.50;;;16.90;99.90;;;;;;5084378;28;20215;-89
2023/06/12 11:32:16;;;;;;;4.13;2.40;;;16.90;99.90;;;;;;5084526;28;20245;-90
2023/06/12 11:34:48;;;;;;;3.70;2.30;;;16.90;99.90;;;;;;5084405;28;20233;-91
2023/06/12 11:37:26;;;;;;;3.88;2.25;;;16.80;99.90;;;;;;5081683;28;20227;-90
2023/06/12 11:40:08;;;;;;;4.50;2.53;;;16.90;99.90;;;;;;5083117;28;20203;-90
2023/06/12 11:42:42;;;;;;;3.95;2.47;;;16.90;99.90;;;;;;5085974;28;20207;-88
2023/06/12 11:45:17;;;;;;;4.22;2.45;;;16.90;99.90;;;;;;5090130;28;20247;-88
2023/06/12 11:47:54;;;;;;;4.07;2.17;;;16.90;99.90;;;;;;5082454;28;20200;-90
2023/06/12 11:50:32;;;;;;;4.72;2.50;;;16.80;99.90;;;;;;5082615;28;20199;-89
2023/06/12 11:53:05;;;;;;;4.53;2.60;;;16.80;99.90;;;;;;5082454;28;20239;-90
2023/06/12 11:55:41;;;;;;;5.78;2.70;;;16.80;99.90;;;;;;5083572;28;20200;-90
2023/06/12 12:01:21;;;;;;;4.15;2.60;;;16.90;99.90;;;;;;5082783;28;20188;-88
2023/06/12 12:04:07;;;;;;;4.38;2.60;;;16.90;99.90;;;;;;5087268;28;20583;-89
2023/06/12 12:06:53;;;;;;;4.32;2.30;;;16.80;99.90;;;;;;5073400;28;20303;-90
2023/06/12 12:09:34;;;;;;;3.53;2.38;;;16.90;99.90;;;;;;5069930;28;20216;-90
2023/06/12 12:12:18;;;;;;;3.42;2.45;;;16.90;99.90;;;;;;5067970;28;20185;-89
2023/06/12 12:15:01;;;;;;;6.22;2.40;;;16.90;99.90;;;;;;5094008;28;20263;-89
2023/06/12 12:17:45;;;;;;;3.78;2.53;;;16.90;99.90;;;;;;5085800;28;20219;-89
2023/06/12 12:20:52;;;;;;;5.45;2.40;;;16.90;99.90;;;;;;5086352;28;20215;-89
2023/06/12 12:23:31;;;;;;;3.38;2.35;;;16.90;99.90;;;;;;5084994;28;20633;-89
2023/06/12 12:26:10;;;;;;;3.28;2.40;;;16.80;99.90;;;;;;5083801;28;20219;-90
2023/06/12 12:28:48;;;;;;;2.55;2.00;;;16.80;99.90;;;;;;5086750;28;20238;-88
2023/06/12 12:31:25;;;;;;;3.25;2.25;;;16.80;99.90;;;;;;5083790;28;20183;-90
2023/06/12 12:34:12;;;;;;;4.03;2.40;;;16.80;99.90;;;;;;5086090;28;20234;-90
2023/06/12 12:36:49;;;;;;;4.13;2.33;;;16.80;99.90;;;;;;5084842;28;20223;-90
2023/06/12 12:39:48;;;;;;;3.28;2.60;;;16.80;99.90;;;;;;5086189;28;20180;-89
2023/06/12 12:42:21;;;;;;;3.95;2.50;;;16.80;99.90;;;;;;5085925;28;20238;-89
2023/06/12 12:47:47;;;;;;;4.22;2.70;;;16.80;99.90;;;;;;5084992;28;20634;-91
2023/06/12 12:53:08;;;;;;;3.05;2.40;;;16.80;99.90;;;;;;5084630;28;20375;-89
2023/06/12 12:55:47;;;;;;;3.55;2.28;;;16.80;99.90;;;;;;5084054;28;20188;-89
2023/06/12 12:58:21;;;;;;;3.33;1.80;;;16.80;99.90;;;;;;5081781;28;20204;-90
2023/06/12 13:00:53;;;;;;;3.50;2.28;;;16.80;99.90;;;;;;5084090;28;20188;-90
2023/06/12 13:03:40;;;;;;;2.75;2.00;;;16.80;99.90;;;;;;5084028;28;20205;-89
2023/06/12 13:06:17;;;;;;;2.63;1.70;;;16.80;99.90;;;;;;5084880;28;20238;-89
2023/06/12 13:09:01;;;;;;;3.55;1.90;;;16.80;99.90;;;;;;5084491;28;20227;-89
2023/06/12 13:11:36;;;;;;;4.10;2.00;;;16.80;99.90;;;;;;5086069;28;20200;-89
2023/06/12 13:14:15;;;;;;;2.65;1.98;;;16.80;99.90;;;;;;5082001;28;20206;-89
2023/06/12 13:19:34;;;;;;;2.45;1.73;;;16.70;99.90;;;;;;5064677;28;20200;-89
2023/06/12 13:22:09;;;;;;;2.80;1.98;;;16.70;99.90;;;;;;5066779;28;20204;-90
2023/06/12 13:24:43;;;;;;;2.80;1.92;;;16.70;99.90;;;;;;5083595;28;20199;-89
2023/06/12 13:27:22;;;;;;;4.85;2.20;;;16.80;99.90;;;;;;5086294;28;20196;-88
2023/06/12 13:32:46;;;;;;;3.42;2.05;;;16.70;99.90;;;;;;5083587;28;20270;-89
2023/06/12 13:35:25;;;;;;;4.30;2.22;;;16.70;99.90;;;;;;5087502;28;20230;-89
2023/06/12 13:37:59;;;;;;;3.60;2.40;;;16.70;99.90;;;;;;5084472;28;20207;-90
2023/06/12 13:40:37;;;;;;;4.15;2.03;;;16.70;99.90;;;;;;5085990;28;20196;-90
2023/06/12 13:43:35;;;;;;;6.57;2.03;;;16.70;99.90;;;;;;5085160;28;20196;-90